Time;durP1;ratioP1;P1;durP2;ratioP2;P2;SDS_P1;SDS_P2;PMS_P1;PMS_P2;Temp;Humidity;BMP_temperature;BMP_pressure;BME280_temperature;BME280_humidity;BME280_pressure;Samples;Min_cycle;Max_cycle;Signal;HPM_P1;HPM_P2
2022/03/06 00:01:04;;;;;;;1.75;1.00;;;-0.50;99.90;;;;;;4970345;28;20454;-87
2022/03/06 00:03:33;;;;;;;4.35;1.20;;;-0.50;99.90;;;;;;4952209;28;20561;-86
2022/03/06 00:06:00;;;;;;;7.45;1.05;;;-0.50;99.90;;;;;;4968456;28;20063;-85
2022/03/06 00:08:29;;;;;;;4.57;2.20;;;-0.50;99.90;;;;;;4952732;28;20065;-90
2022/03/06 00:10:57;;;;;;;5.57;1.15;;;-0.50;99.90;;;;;;4972272;28;20522;-89
2022/03/06 00:13:24;;;;;;;4.38;1.50;;;-0.50;99.90;;;;;;4969077;28;20137;-84
2022/03/06 00:15:52;;;;;;;6.38;1.23;;;-0.40;99.90;;;;;;4969447;28;20515;-82
2022/03/06 00:18:20;;;;;;;4.45;1.50;;;-0.50;99.90;;;;;;4969853;28;20526;-89
2022/03/06 00:20:47;;;;;;;3.97;1.15;;;-0.50;99.90;;;;;;4968988;28;20054;-86
2022/03/06 00:23:15;;;;;;;5.57;1.27;;;-0.50;99.90;;;;;;4951130;28;20063;-86
2022/03/06 00:25:43;;;;;;;1.90;1.10;;;-0.50;99.90;;;;;;4955000;28;20105;-86
2022/03/06 00:28:11;;;;;;;7.82;1.75;;;-0.50;99.90;;;;;;4956190;28;20787;-88
2022/03/06 00:30:41;;;;;;;2.33;1.60;;;-0.50;99.90;;;;;;4970763;28;20121;-84
2022/03/06 00:33:09;;;;;;;5.03;1.35;;;-0.50;99.90;;;;;;4972482;28;20054;-84
2022/03/06 00:35:37;;;;;;;5.15;2.60;;;-0.50;99.90;;;;;;4955010;28;20094;-87
2022/03/06 00:38:04;;;;;;;3.22;1.50;;;-0.50;99.90;;;;;;4971680;28;20524;-87
2022/03/06 00:40:32;;;;;;;2.72;1.20;;;-0.50;99.90;;;;;;4972654;28;20043;-90
2022/03/06 00:43:01;;;;;;;2.88;1.33;;;-0.50;99.90;;;;;;4951963;28;20050;-87
2022/03/06 00:45:28;;;;;;;2.45;1.30;;;-0.50;99.90;;;;;;4974380;28;20042;-88
2022/03/06 00:47:56;;;;;;;5.57;1.25;;;-0.50;99.90;;;;;;4972668;28;20063;-88
2022/03/06 00:50:24;;;;;;;2.55;1.00;;;-0.50;99.90;;;;;;4971835;28;20046;-83
2022/03/06 00:52:52;;;;;;;4.82;1.30;;;-0.50;99.90;;;;;;4955050;28;20043;-85
2022/03/06 00:55:20;;;;;;;3.00;1.05;;;-0.50;99.90;;;;;;4954837;28;20047;-86
2022/03/06 00:57:47;;;;;;;7.78;1.42;;;-0.60;99.90;;;;;;4955567;28;20137;-85
2022/03/06 01:00:17;;;;;;;2.17;1.23;;;-0.60;99.90;;;;;;4953494;28;20051;-87
2022/03/06 01:02:44;;;;;;;9.10;1.20;;;-0.50;99.90;;;;;;4970950;28;20059;-87
2022/03/06 01:05:12;;;;;;;7.10;1.20;;;-0.60;99.90;;;;;;4971989;28;20050;-89
2022/03/06 01:07:39;;;;;;;2.92;1.08;;;-0.60;99.90;;;;;;4956777;28;20054;-82
2022/03/06 01:10:09;;;;;;;6.13;1.30;;;-0.60;99.90;;;;;;4972459;28;20047;-85
2022/03/06 01:12:37;;;;;;;1.75;0.90;;;-0.60;99.90;;;;;;4956905;28;20078;-86
2022/03/06 01:15:05;;;;;;;2.90;1.48;;;-0.50;99.90;;;;;;4918346;28;1126673;-88
2022/03/06 01:17:35;;;;;;;3.90;1.30;;;-0.50;99.90;;;;;;4972351;28;20101;-87
2022/03/06 01:20:02;;;;;;;7.53;1.35;;;-0.50;99.90;;;;;;4976397;28;20062;-87
2022/03/06 01:22:30;;;;;;;3.13;1.08;;;-0.50;99.90;;;;;;4974266;28;20055;-86
2022/03/06 01:24:58;;;;;;;1.77;1.10;;;-0.50;99.90;;;;;;4955262;28;20169;-89
2022/03/06 01:27:25;;;;;;;3.40;1.30;;;-0.60;99.90;;;;;;4971272;28;20042;-78
2022/03/06 01:29:52;;;;;;;3.28;1.40;;;-0.60;99.90;;;;;;4972145;28;20055;-77
2022/03/06 01:32:19;;;;;;;3.35;1.30;;;-0.50;99.90;;;;;;4971553;28;20077;-78
2022/03/06 01:34:48;;;;;;;8.60;1.48;;;-0.50;99.90;;;;;;4973744;28;20051;-78
2022/03/06 01:37:16;;;;;;;2.13;1.10;;;-0.40;99.90;;;;;;4953468;28;20042;-78
2022/03/06 01:39:43;;;;;;;4.38;1.40;;;-0.40;99.90;;;;;;4971752;28;20059;-76
2022/03/06 01:42:11;;;;;;;3.65;1.55;;;-0.40;99.90;;;;;;4954437;28;20057;-76
2022/03/06 01:44:38;;;;;;;3.38;1.20;;;-0.40;99.90;;;;;;4972762;28;20544;-76
2022/03/06 01:47:06;;;;;;;5.93;1.25;;;-0.40;99.90;;;;;;4953972;28;20055;-76
2022/03/06 01:49:34;;;;;;;4.82;1.40;;;-0.40;99.90;;;;;;4955431;28;20566;-76
2022/03/06 01:52:04;;;;;;;7.35;1.67;;;-0.40;99.90;;;;;;4972468;28;20043;-77
2022/03/06 01:54:32;;;;;;;7.18;1.05;;;-0.40;99.90;;;;;;4970821;28;20094;-76
2022/03/06 01:56:59;;;;;;;3.85;1.27;;;-0.40;99.90;;;;;;4972694;28;20627;-76
2022/03/06 01:59:27;;;;;;;6.10;1.20;;;-0.40;99.90;;;;;;4973548;28;20419;-77
2022/03/06 02:01:54;;;;;;;3.97;1.10;;;-0.40;99.90;;;;;;4956264;28;20050;-77
2022/03/06 02:04:22;;;;;;;5.78;2.00;;;-0.40;99.90;;;;;;4954303;28;20396;-76
2022/03/06 02:06:49;;;;;;;3.63;1.20;;;-0.40;99.90;;;;;;4938864;28;20058;-76
2022/03/06 02:09:18;;;;;;;2.30;1.48;;;-0.40;99.90;;;;;;4970994;28;20472;-77
2022/03/06 02:12:18;;;;;;;4.57;1.67;;;-0.40;99.90;;;;;;4956121;28;20105;-76
2022/03/06 02:14:33;;;;;;;4.20;1.55;;;-0.40;99.90;;;;;;4970075;28;20057;-77
2022/03/06 02:17:01;;;;;;;7.68;2.13;;;-0.40;99.90;;;;;;4972858;28;20345;-77
2022/03/06 02:19:28;;;;;;;8.32;1.70;;;-0.40;99.90;;;;;;4969957;28;20065;-77
2022/03/06 02:21:57;;;;;;;4.28;1.50;;;-0.40;99.90;;;;;;4973078;28;20414;-77
2022/03/06 02:24:24;;;;;;;5.28;1.60;;;-0.40;99.90;;;;;;4970910;28;20504;-76
2022/03/06 02:26:51;;;;;;;1.70;1.25;;;-0.40;99.90;;;;;;4969900;28;20059;-76
2022/03/06 02:29:19;;;;;;;2.58;1.80;;;-0.50;99.90;;;;;;4955124;28;20639;-77
2022/03/06 02:31:46;;;;;;;3.80;1.27;;;-0.50;99.90;;;;;;4970166;28;20051;-76
2022/03/06 02:34:13;;;;;;;4.03;1.20;;;-0.50;99.90;;;;;;4969790;28;20059;-76
2022/03/06 02:36:41;;;;;;;2.47;1.27;;;-0.50;99.90;;;;;;4969110;28;20050;-77
2022/03/06 02:39:10;;;;;;;2.60;1.83;;;-0.50;99.90;;;;;;4955569;28;20047;-77
2022/03/06 02:41:38;;;;;;;3.90;1.40;;;-0.50;99.90;;;;;;4971058;28;20593;-77
2022/03/06 02:44:06;;;;;;;4.70;1.42;;;-0.50;99.90;;;;;;4953853;28;20415;-77
2022/03/06 02:46:33;;;;;;;4.20;1.60;;;-0.50;99.90;;;;;;4968931;28;20058;-77
2022/03/06 02:49:01;;;;;;;3.60;1.38;;;-0.50;99.90;;;;;;4972838;28;20102;-76
2022/03/06 02:51:28;;;;;;;7.68;2.03;;;-0.50;99.90;;;;;;4952882;28;20483;-77
2022/03/06 02:53:56;;;;;;;4.50;1.40;;;-0.50;99.90;;;;;;4970835;28;20047;-77
2022/03/06 02:56:24;;;;;;;4.60;2.03;;;-0.40;99.90;;;;;;4938076;28;20047;-76
2022/03/06 02:58:52;;;;;;;5.05;1.95;;;-0.40;99.90;;;;;;4972978;28;20046;-76
2022/03/06 03:01:19;;;;;;;3.95;2.38;;;-0.40;99.90;;;;;;4952378;28;20535;-77
2022/03/06 03:03:47;;;;;;;9.20;2.65;;;-0.40;99.90;;;;;;4969591;28;20058;-77
2022/03/06 03:06:14;;;;;;;4.88;1.90;;;-0.40;99.90;;;;;;4970365;28;20082;-77
2022/03/06 03:08:42;;;;;;;7.00;1.85;;;-0.40;99.90;;;;;;4970676;28;20496;-76
2022/03/06 03:11:09;;;;;;;4.93;1.70;;;-0.40;99.90;;;;;;4970414;28;20055;-77
2022/03/06 03:13:38;;;;;;;3.83;2.33;;;-0.40;99.90;;;;;;4969790;28;20059;-77
2022/03/06 03:16:06;;;;;;;5.85;2.28;;;-0.50;99.90;;;;;;4955105;28;20047;-78
2022/03/06 03:18:33;;;;;;;3.88;1.70;;;-0.50;99.90;;;;;;4970168;28;20046;-78
2022/03/06 03:21:01;;;;;;;4.43;1.70;;;-0.40;99.90;;;;;;4936362;28;20103;-78
2022/03/06 03:23:28;;;;;;;3.80;1.55;;;-0.30;99.90;;;;;;4970980;28;20058;-78
2022/03/06 03:25:56;;;;;;;7.07;2.08;;;-0.30;99.90;;;;;;4972482;28;20054;-78
2022/03/06 03:28:23;;;;;;;5.57;1.48;;;-0.20;99.90;;;;;;4969437;28;20082;-78
2022/03/06 03:30:52;;;;;;;6.38;1.42;;;-0.20;99.90;;;;;;4951970;28;20074;-77
2022/03/06 03:33:19;;;;;;;4.22;1.33;;;-0.10;99.90;;;;;;4969524;28;20042;-77
2022/03/06 03:35:47;;;;;;;5.15;1.23;;;-0.10;99.90;;;;;;4972234;28;20463;-77
2022/03/06 03:38:14;;;;;;;4.90;1.60;;;0.00;99.90;;;;;;4969107;28;20423;-78
2022/03/06 03:40:42;;;;;;;4.03;1.23;;;0.00;99.90;;;;;;4967649;28;20498;-78
2022/03/06 03:43:09;;;;;;;2.33;1.65;;;0.10;99.90;;;;;;4970586;28;20082;-77
2022/03/06 03:45:37;;;;;;;9.18;2.08;;;0.10;99.90;;;;;;4970606;28;20066;-77
2022/03/06 03:48:06;;;;;;;3.97;1.48;;;0.10;99.90;;;;;;4968681;28;20047;-77
2022/03/06 03:50:34;;;;;;;4.47;1.25;;;0.10;99.90;;;;;;4970432;28;20058;-77
2022/03/06 03:53:01;;;;;;;9.68;1.65;;;0.20;99.90;;;;;;4970291;28;20140;-78
2022/03/06 03:55:29;;;;;;;10.07;1.70;;;0.20;99.90;;;;;;4952050;28;20086;-77
2022/03/06 03:57:56;;;;;;;4.72;1.42;;;0.20;99.90;;;;;;4967479;28;20043;-77
2022/03/06 04:00:24;;;;;;;4.25;1.35;;;0.20;99.90;;;;;;4970749;28;20463;-77
2022/03/06 04:02:51;;;;;;;5.55;1.40;;;0.30;99.90;;;;;;4954225;28;20519;-77
2022/03/06 04:05:20;;;;;;;4.57;1.83;;;0.30;99.90;;;;;;4969886;28;20145;-77
2022/03/06 04:07:47;;;;;;;1.55;1.35;;;0.30;99.90;;;;;;4965188;28;20082;-77
2022/03/06 04:10:15;;;;;;;4.68;2.00;;;0.30;99.90;;;;;;4969387;28;20141;-76
2022/03/06 04:12:42;;;;;;;4.68;1.17;;;0.30;99.90;;;;;;4989251;28;20411;-77
2022/03/06 04:15:10;;;;;;;3.03;1.25;;;0.40;99.90;;;;;;4966317;28;20146;-78
2022/03/06 04:17:37;;;;;;;6.50;1.20;;;0.30;99.90;;;;;;4969956;28;20043;-77
2022/03/06 04:20:07;;;;;;;4.93;1.33;;;0.40;99.90;;;;;;4969205;28;20055;-78
2022/03/06 04:22:36;;;;;;;4.53;1.90;;;0.40;99.90;;;;;;4969654;28;20051;-78
2022/03/06 04:25:05;;;;;;;4.00;1.23;;;0.40;99.90;;;;;;4968029;28;20057;-77
2022/03/06 04:27:33;;;;;;;11.77;1.80;;;0.40;99.90;;;;;;4953991;28;20043;-77
2022/03/06 04:30:01;;;;;;;8.10;1.33;;;0.40;99.90;;;;;;4953809;28;20537;-77
2022/03/06 04:32:28;;;;;;;1.83;1.20;;;0.40;99.90;;;;;;4969348;28;20531;-77
2022/03/06 04:34:55;;;;;;;5.03;1.33;;;0.40;99.90;;;;;;4952238;28;20047;-77
2022/03/06 04:37:23;;;;;;;5.25;1.27;;;0.40;99.90;;;;;;4954198;28;20051;-77
2022/03/06 04:39:52;;;;;;;3.95;1.15;;;0.30;99.90;;;;;;4969879;28;20050;-76
2022/03/06 04:42:22;;;;;;;5.60;1.50;;;0.30;99.90;;;;;;4968281;28;20053;-78
2022/03/06 04:44:49;;;;;;;6.28;1.73;;;0.30;99.90;;;;;;4966121;28;20055;-76
2022/03/06 04:47:17;;;;;;;4.10;1.80;;;0.30;99.90;;;;;;4968540;28;20054;-76
2022/03/06 04:49:44;;;;;;;6.68;2.30;;;0.30;99.90;;;;;;4953709;28;20043;-76
2022/03/06 04:52:12;;;;;;;10.98;2.60;;;0.40;99.90;;;;;;4968407;28;20054;-76
2022/03/06 04:54:39;;;;;;;7.75;2.75;;;0.40;99.90;;;;;;4968176;28;20123;-76
2022/03/06 04:57:08;;;;;;;5.35;1.70;;;0.30;99.90;;;;;;4969915;28;20055;-72
2022/03/06 04:59:35;;;;;;;3.75;1.17;;;0.30;99.90;;;;;;4969947;28;20227;-76
2022/03/06 05:02:04;;;;;;;4.72;1.30;;;0.20;99.90;;;;;;4952088;28;20071;-76
2022/03/06 05:04:31;;;;;;;4.80;1.52;;;0.20;99.90;;;;;;4953548;28;20479;-76
2022/03/06 05:06:59;;;;;;;2.55;1.20;;;0.20;99.90;;;;;;4969695;28;20125;-76
2022/03/06 05:09:26;;;;;;;5.38;1.50;;;0.20;99.90;;;;;;4968241;28;20052;-75
2022/03/06 05:11:53;;;;;;;2.47;0.98;;;0.20;99.90;;;;;;4973811;28;20051;-76
2022/03/06 05:14:22;;;;;;;3.47;1.17;;;0.20;99.90;;;;;;4973717;28;20049;-77
2022/03/06 05:16:50;;;;;;;4.22;1.65;;;0.20;99.90;;;;;;4957622;28;20061;-76
2022/03/06 05:19:17;;;;;;;2.95;1.08;;;0.10;99.90;;;;;;4971768;28;20523;-76
2022/03/06 05:21:45;;;;;;;4.68;1.45;;;0.10;99.90;;;;;;4955785;28;20570;-76
2022/03/06 05:24:12;;;;;;;5.05;1.45;;;0.00;99.90;;;;;;4973837;28;20145;-85
2022/03/06 05:26:40;;;;;;;4.93;1.35;;;0.00;99.90;;;;;;4957355;28;20149;-85
2022/03/06 05:29:07;;;;;;;2.78;1.50;;;0.10;99.90;;;;;;4971644;28;20082;-84
2022/03/06 05:31:36;;;;;;;3.45;1.27;;;0.10;99.90;;;;;;4973681;28;20051;-85
2022/03/06 05:34:04;;;;;;;6.57;1.33;;;0.20;99.90;;;;;;4985160;28;20051;-87
2022/03/06 05:36:31;;;;;;;6.07;1.40;;;0.20;99.90;;;;;;4979867;28;20050;-87
2022/03/06 05:38:59;;;;;;;2.22;1.20;;;0.20;99.90;;;;;;4970950;28;20090;-85
2022/03/06 05:41:26;;;;;;;2.17;0.95;;;0.10;99.90;;;;;;4974707;28;20051;-86
2022/03/06 05:43:54;;;;;;;5.90;1.67;;;0.10;99.90;;;;;;4985885;28;20455;-76
2022/03/06 05:46:22;;;;;;;1.92;1.00;;;0.10;99.90;;;;;;4953771;28;20051;-77
2022/03/06 05:48:51;;;;;;;1.92;1.20;;;0.10;99.90;;;;;;4972828;28;20516;-78
2022/03/06 05:51:18;;;;;;;7.53;1.33;;;0.10;99.90;;;;;;4971683;28;20046;-78
2022/03/06 05:53:45;;;;;;;4.57;1.30;;;0.10;99.90;;;;;;4956775;28;20230;-76
2022/03/06 05:56:13;;;;;;;5.25;1.10;;;0.00;99.90;;;;;;4953850;28;20122;-76
2022/03/06 05:58:40;;;;;;;8.90;0.90;;;-0.10;99.90;;;;;;4971843;28;20058;-76
2022/03/06 06:01:07;;;;;;;9.52;1.23;;;-0.20;99.90;;;;;;4958199;28;20930;-77
2022/03/06 06:03:36;;;;;;;1.77;1.25;;;-0.20;99.90;;;;;;4973743;28;20047;-77
2022/03/06 06:06:06;;;;;;;2.05;1.00;;;-0.30;99.90;;;;;;4953750;28;20078;-77
2022/03/06 06:08:34;;;;;;;5.53;0.98;;;-0.30;99.90;;;;;;4972323;28;20050;-77
2022/03/06 06:11:02;;;;;;;4.03;1.30;;;-0.30;99.90;;;;;;4955031;28;20047;-76
2022/03/06 06:13:30;;;;;;;5.68;1.15;;;-0.30;99.90;;;;;;4972468;28;20053;-74
2022/03/06 06:15:57;;;;;;;9.20;1.83;;;-0.20;99.90;;;;;;4971057;28;20047;-74
2022/03/06 06:18:26;;;;;;;5.35;1.38;;;-0.20;99.90;;;;;;4973197;28;20050;-76
2022/03/06 06:20:54;;;;;;;3.53;0.77;;;-0.20;99.90;;;;;;4973694;28;20055;-73
2022/03/06 06:23:23;;;;;;;2.05;1.00;;;-0.20;99.90;;;;;;4964740;28;20061;-88
2022/03/06 06:25:50;;;;;;;2.53;1.33;;;-0.10;99.90;;;;;;4974568;28;20089;-90
2022/03/06 06:28:25;;;;;;;3.35;1.45;;;0.00;99.90;;;;;;4939780;28;20058;-78
2022/03/06 06:30:52;;;;;;;1.80;0.90;;;0.10;99.90;;;;;;4939610;28;20047;-77
2022/03/06 06:33:19;;;;;;;3.30;1.35;;;0.20;99.90;;;;;;4970793;28;20575;-87
2022/03/06 06:35:47;;;;;;;3.05;1.40;;;0.10;99.90;;;;;;4955356;28;20070;-89
2022/03/06 06:38:15;;;;;;;6.07;1.80;;;0.10;99.90;;;;;;4971094;28;20097;-88
2022/03/06 06:40:44;;;;;;;5.00;1.10;;;0.20;99.90;;;;;;4972445;28;20046;-87
2022/03/06 06:43:12;;;;;;;2.78;0.93;;;0.10;99.90;;;;;;4970921;28;20482;-87
2022/03/06 06:45:39;;;;;;;2.67;1.27;;;0.10;99.90;;;;;;4971073;28;20054;-88
2022/03/06 06:48:07;;;;;;;9.32;1.60;;;0.20;99.90;;;;;;4970723;28;20379;-88
2022/03/06 06:50:34;;;;;;;10.13;1.95;;;0.30;99.90;;;;;;4954589;28;20073;-88
2022/03/06 06:53:02;;;;;;;3.85;1.20;;;0.40;99.90;;;;;;4936845;28;20051;-91
2022/03/06 06:55:29;;;;;;;5.68;1.35;;;0.40;99.90;;;;;;4971200;28;20074;-89
2022/03/06 06:57:58;;;;;;;4.82;1.23;;;0.40;99.90;;;;;;4961864;28;20245;-89
2022/03/06 07:00:26;;;;;;;4.85;1.35;;;0.30;99.90;;;;;;4970816;28;20055;-78
2022/03/06 07:02:53;;;;;;;1.40;1.00;;;0.20;99.90;;;;;;4971038;28;20105;-79
2022/03/06 07:05:20;;;;;;;2.17;1.88;;;0.10;99.90;;;;;;4961150;28;20589;-86
2022/03/06 07:08:33;;;;;;;6.03;1.27;;;-0.10;99.90;;;;;;4977441;28;20060;-77
2022/03/06 07:11:00;;;;;;;6.97;2.20;;;0.00;99.90;;;;;;4967169;28;20061;-82
2022/03/06 07:13:29;;;;;;;8.85;2.00;;;0.00;99.90;;;;;;4959042;28;20050;-82
2022/03/06 07:16:02;;;;;;;5.28;1.90;;;0.00;99.90;;;;;;4971146;28;20507;-86
2022/03/06 07:18:29;;;;;;;4.97;1.67;;;0.00;99.90;;;;;;4970510;28;20377;-82
2022/03/06 07:20:57;;;;;;;4.40;1.40;;;0.00;99.90;;;;;;4965245;28;20058;-83
2022/03/06 07:23:24;;;;;;;4.43;1.73;;;0.00;99.90;;;;;;4972341;28;20061;-85
2022/03/06 07:25:52;;;;;;;4.93;1.98;;;0.10;99.90;;;;;;4978238;28;20161;-83
2022/03/06 07:28:19;;;;;;;5.22;1.85;;;0.00;99.90;;;;;;4976934;28;20563;-83
2022/03/06 07:30:48;;;;;;;2.30;1.65;;;0.10;99.90;;;;;;4968868;28;20054;-82
2022/03/06 07:33:16;;;;;;;27.15;3.47;;;0.10;99.90;;;;;;4992001;28;20050;-86
2022/03/06 07:35:45;;;;;;;2.28;1.42;;;0.00;99.90;;;;;;4963762;28;20172;-80
2022/03/06 07:38:14;;;;;;;15.43;1.85;;;0.10;99.90;;;;;;4980837;28;20141;-78
2022/03/06 07:40:42;;;;;;;1.92;1.35;;;0.20;99.90;;;;;;4954521;28;20150;-76
2022/03/06 07:43:09;;;;;;;8.23;1.75;;;0.20;99.90;;;;;;4971018;28;20527;-75
2022/03/06 07:45:37;;;;;;;7.85;1.40;;;0.20;99.90;;;;;;4969020;28;20415;-77
2022/03/06 07:48:07;;;;;;;7.95;1.40;;;0.20;99.90;;;;;;4983155;28;20257;-76
2022/03/06 07:50:35;;;;;;;4.85;1.70;;;0.30;99.90;;;;;;4968199;28;20059;-80
2022/03/06 07:53:02;;;;;;;6.97;2.08;;;0.30;99.90;;;;;;4969768;28;20051;-82
2022/03/06 07:55:38;;;;;;;6.00;1.73;;;0.40;99.90;;;;;;4941771;28;20113;-81
2022/03/06 07:58:34;;;;;;;2.50;1.02;;;0.40;99.90;;;;;;4958902;28;20056;-76
2022/03/06 08:01:02;;;;;;;3.28;1.30;;;0.50;99.90;;;;;;4964868;28;20055;-86
2022/03/06 08:03:31;;;;;;;3.40;1.40;;;0.50;99.90;;;;;;4974739;28;20141;-85
2022/03/06 08:05:59;;;;;;;4.40;1.40;;;0.60;99.90;;;;;;4982554;28;20503;-78
2022/03/06 08:08:27;;;;;;;4.53;1.50;;;0.70;99.90;;;;;;4970346;28;20061;-79
2022/03/06 08:10:54;;;;;;;2.15;1.58;;;0.70;99.90;;;;;;4953930;28;20507;-80
2022/03/06 08:13:22;;;;;;;6.53;1.48;;;0.70;99.90;;;;;;4983371;28;20105;-78
2022/03/06 08:15:56;;;;;;;2.65;1.20;;;0.80;99.90;;;;;;4978639;28;20121;-71
2022/03/06 08:19:01;;;;;;;7.45;1.25;;;0.90;99.90;;;;;;4958532;28;20058;-78
2022/03/06 08:21:39;;;;;;;3.72;1.42;;;0.90;99.90;;;;;;4972880;28;20170;-80
2022/03/06 08:24:07;;;;;;;2.92;1.70;;;1.00;99.90;;;;;;4958460;28;20639;-75
2022/03/06 08:26:35;;;;;;;3.75;1.70;;;1.00;99.90;;;;;;4963577;28;20045;-76
2022/03/06 08:29:03;;;;;;;8.32;2.30;;;1.10;99.90;;;;;;4975136;28;20109;-76
2022/03/06 08:31:30;;;;;;;4.78;1.65;;;1.10;99.90;;;;;;4980211;28;20052;-76
2022/03/06 08:34:01;;;;;;;4.57;1.63;;;1.00;99.90;;;;;;4974792;28;20050;-67
2022/03/06 08:36:30;;;;;;;6.85;1.98;;;1.10;99.90;;;;;;4957680;28;20109;-67
2022/03/06 08:38:57;;;;;;;3.65;1.40;;;1.00;99.90;;;;;;4977209;28;20062;-69
2022/03/06 08:41:25;;;;;;;3.60;1.50;;;0.90;99.90;;;;;;4974133;28;20039;-66
2022/03/06 08:43:52;;;;;;;4.63;1.65;;;0.90;99.90;;;;;;4968126;28;20055;-67
2022/03/06 08:46:19;;;;;;;5.25;1.17;;;0.90;99.90;;;;;;4975190;28;20059;-69
2022/03/06 08:48:46;;;;;;;7.18;1.95;;;0.90;99.90;;;;;;4954976;28;20081;-68
2022/03/06 08:51:15;;;;;;;5.93;3.58;;;0.90;99.90;;;;;;4964227;28;20043;-69
2022/03/06 08:53:42;;;;;;;6.05;3.25;;;1.00;99.90;;;;;;4973673;28;20047;-71
2022/03/06 08:56:10;;;;;;;7.68;2.65;;;1.10;99.90;;;;;;4979957;28;20050;-68
2022/03/06 08:58:37;;;;;;;7.85;2.30;;;1.20;99.90;;;;;;4975070;28;20482;-70
2022/03/06 09:01:05;;;;;;;5.47;1.48;;;1.30;99.90;;;;;;4956442;28;20089;-69
2022/03/06 09:03:32;;;;;;;8.13;1.90;;;1.30;99.90;;;;;;4978267;28;20080;-70
2022/03/06 09:05:59;;;;;;;5.88;2.58;;;1.20;99.90;;;;;;4984249;28;20113;-69
2022/03/06 09:08:28;;;;;;;6.13;1.50;;;1.20;99.90;;;;;;4973293;28;20061;-69
2022/03/06 09:10:56;;;;;;;5.25;2.30;;;1.30;99.90;;;;;;4976677;28;20141;-70
2022/03/06 09:13:23;;;;;;;3.67;1.77;;;1.30;99.90;;;;;;4974133;28;20478;-69
2022/03/06 09:15:51;;;;;;;5.25;1.75;;;1.40;99.90;;;;;;4974692;28;20361;-68
2022/03/06 09:18:20;;;;;;;3.47;1.85;;;1.60;99.90;;;;;;4975198;28;20070;-68
2022/03/06 09:20:47;;;;;;;6.60;2.00;;;1.70;99.90;;;;;;4975704;28;20640;-68
2022/03/06 09:23:14;;;;;;;5.25;1.63;;;1.90;99.90;;;;;;4972077;28;20047;-69
2022/03/06 09:25:43;;;;;;;4.28;1.25;;;2.30;99.90;;;;;;4955908;28;20075;-71
2022/03/06 09:28:10;;;;;;;10.73;2.13;;;2.60;99.90;;;;;;4976423;28;20047;-70
2022/03/06 09:30:38;;;;;;;5.63;1.50;;;2.70;99.90;;;;;;4968451;28;20160;-70
2022/03/06 09:33:06;;;;;;;3.83;1.60;;;2.80;99.90;;;;;;4971351;28;20047;-68
2022/03/06 09:35:33;;;;;;;6.63;1.60;;;2.90;99.90;;;;;;4979783;28;20039;-69
2022/03/06 09:38:02;;;;;;;5.93;1.30;;;3.00;99.90;;;;;;4976912;28;20051;-70
2022/03/06 09:40:30;;;;;;;7.82;1.40;;;3.20;99.90;;;;;;4987284;28;20046;-68
2022/03/06 09:43:01;;;;;;;6.82;1.75;;;3.40;99.90;;;;;;4975032;28;20383;-76
2022/03/06 09:45:31;;;;;;;4.22;1.80;;;3.60;99.90;;;;;;4974560;28;20138;-77
2022/03/06 09:47:59;;;;;;;3.65;1.48;;;4.00;99.90;;;;;;4975499;28;20141;-76
2022/03/06 09:50:27;;;;;;;5.53;1.60;;;4.10;99.90;;;;;;4974583;28;20047;-76
2022/03/06 09:52:55;;;;;;;8.85;1.67;;;4.00;99.90;;;;;;4972722;28;20051;-76
2022/03/06 09:55:23;;;;;;;5.63;1.50;;;3.90;99.90;;;;;;4973959;28;20058;-75
2022/03/06 09:57:54;;;;;;;8.23;1.90;;;3.90;99.90;;;;;;4972315;28;20062;-75
2022/03/06 10:00:23;;;;;;;6.25;1.92;;;4.20;99.90;;;;;;4961217;28;20050;-77
2022/03/06 10:03:00;;;;;;;4.60;1.80;;;4.50;99.90;;;;;;4973995;28;20054;-70
2022/03/06 10:05:33;;;;;;;4.15;1.52;;;4.70;99.90;;;;;;4962529;28;20047;-69
2022/03/06 10:08:21;;;;;;;2.53;1.08;;;4.80;99.90;;;;;;4980741;28;20055;-72
2022/03/06 10:10:51;;;;;;;3.53;1.50;;;5.30;99.90;;;;;;4953967;28;20459;-74
2022/03/06 10:13:25;;;;;;;5.80;1.23;;;6.10;99.90;;;;;;4979671;28;20070;-77
2022/03/06 10:16:17;;;;;;;4.18;1.50;;;7.20;99.90;;;;;;4982921;28;20137;-78
2022/03/06 10:18:47;;;;;;;4.43;1.35;;;8.70;99.90;;;;;;4976586;28;20073;-76
2022/03/06 10:21:19;;;;;;;7.28;1.63;;;9.50;96.40;;;;;;4979926;28;20042;-68
2022/03/06 10:23:50;;;;;;;8.27;1.50;;;10.40;90.10;;;;;;4968267;28;20055;-71
2022/03/06 10:26:20;;;;;;;6.38;1.40;;;11.30;82.90;;;;;;4967598;28;20057;-71
2022/03/06 10:28:51;;;;;;;6.70;1.50;;;11.80;76.30;;;;;;4968557;28;20173;-71
2022/03/06 10:31:22;;;;;;;5.85;1.77;;;12.00;75.10;;;;;;4967428;28;20058;-71
2022/03/06 10:34:04;;;;;;;3.13;1.40;;;12.40;72.90;;;;;;4969537;28;20046;-69
2022/03/06 10:36:39;;;;;;;5.95;1.30;;;12.70;69.70;;;;;;4972329;28;20054;-69
2022/03/06 10:39:13;;;;;;;3.60;1.33;;;13.10;67.60;;;;;;4968511;28;20636;-72
2022/03/06 10:41:44;;;;;;;6.22;1.67;;;13.90;63.60;;;;;;4971238;28;20050;-70
2022/03/06 10:44:12;;;;;;;8.63;1.40;;;14.10;62.10;;;;;;4974603;28;20233;-71
2022/03/06 10:46:43;;;;;;;5.35;1.30;;;14.30;60.90;;;;;;4972721;28;20483;-69
2022/03/06 10:49:15;;;;;;;12.00;2.33;;;14.30;60.90;;;;;;4971596;28;20058;-69
2022/03/06 10:51:46;;;;;;;3.97;1.67;;;13.80;60.30;;;;;;4981846;28;20153;-71
2022/03/06 10:54:16;;;;;;;7.75;2.08;;;13.10;62.00;;;;;;4969615;28;20078;-71
2022/03/06 10:56:47;;;;;;;4.90;1.67;;;12.80;63.30;;;;;;4972461;28;20121;-70
2022/03/06 10:59:19;;;;;;;6.60;1.98;;;12.40;64.10;;;;;;4972948;28;20055;-69
2022/03/06 11:01:49;;;;;;;3.30;1.38;;;12.10;66.60;;;;;;4982067;28;20141;-71
2022/03/06 11:04:19;;;;;;;4.10;2.17;;;12.60;66.50;;;;;;4972210;28;20063;-76
2022/03/06 11:06:48;;;;;;;2.95;1.50;;;13.40;64.70;;;;;;4971328;28;20046;-78
2022/03/06 11:09:19;;;;;;;3.63;1.15;;;14.10;60.90;;;;;;4972136;28;20094;-77
2022/03/06 11:11:50;;;;;;;3.70;1.60;;;14.20;60.60;;;;;;4975305;28;20145;-77
2022/03/06 11:14:19;;;;;;;5.60;1.77;;;14.50;59.10;;;;;;4971783;28;20524;-76
2022/03/06 11:16:48;;;;;;;5.03;2.00;;;14.30;58.60;;;;;;4953796;28;20053;-78
2022/03/06 11:19:15;;;;;;;4.78;1.45;;;13.70;59.30;;;;;;4972874;28;20635;-76
2022/03/06 11:21:46;;;;;;;11.77;2.83;;;12.90;61.50;;;;;;4976676;28;20495;-79
2022/03/06 11:24:17;;;;;;;6.63;1.30;;;12.20;63.40;;;;;;4984053;28;20574;-76
2022/03/06 11:27:39;;;;;;;3.35;1.45;;;12.10;65.20;;;;;;4945479;28;20065;-78
2022/03/06 11:30:18;;;;;;;5.05;1.38;;;12.60;63.80;;;;;;4881244;29;20057;-80
2022/03/06 11:33:00;;;;;;;4.18;1.33;;;13.00;62.40;;;;;;4976294;28;20479;-70
2022/03/06 11:35:33;;;;;;;6.97;1.65;;;13.20;61.00;;;;;;4955020;28;20145;-71
2022/03/06 11:38:02;;;;;;;4.10;1.38;;;12.90;61.50;;;;;;4972330;28;20473;-70
2022/03/06 11:40:45;;;;;;;2.75;1.05;;;13.00;63.10;;;;;;4952609;28;20515;-76
2022/03/06 11:43:32;;;;;;;2.35;1.15;;;13.60;60.80;;;;;;4971119;28;20070;-70
2022/03/06 11:46:16;;;;;;;4.20;1.20;;;14.10;59.20;;;;;;4978537;28;20050;-70
2022/03/06 11:49:16;;;;;;;4.30;1.73;;;14.70;58.40;;;;;;4988646;28;20578;-77
2022/03/06 11:51:48;;;;;;;7.10;1.20;;;15.00;57.20;;;;;;4964654;28;20511;-71
2022/03/06 11:54:49;;;;;;;2.20;1.00;;;15.30;56.30;;;;;;4974192;28;20148;-71
2022/03/06 11:57:37;;;;;;;6.45;1.60;;;15.40;55.60;;;;;;4947541;28;20101;-70
2022/03/06 12:00:20;;;;;;;4.88;1.73;;;14.40;57.20;;;;;;4970035;28;20538;-70
2022/03/06 12:02:51;;;;;;;3.50;1.23;;;14.00;58.40;;;;;;4971576;28;20058;-71
2022/03/06 12:05:21;;;;;;;4.20;1.50;;;13.90;58.60;;;;;;4958354;28;20053;-70
2022/03/06 12:07:51;;;;;;;9.75;1.05;;;13.70;58.70;;;;;;4974365;28;20047;-69
2022/03/06 12:10:19;;;;;;;2.10;1.10;;;13.50;59.30;;;;;;4953570;28;20059;-72
2022/03/06 12:12:58;;;;;;;3.80;1.30;;;13.10;59.90;;;;;;4978879;28;20047;-70
2022/03/06 12:15:28;;;;;;;6.47;1.33;;;13.10;60.70;;;;;;4960982;28;20042;-69
2022/03/06 12:18:04;;;;;;;4.70;1.60;;;13.00;60.80;;;;;;4977635;28;20058;-69
2022/03/06 12:20:42;;;;;;;4.32;1.67;;;12.90;61.20;;;;;;4973530;28;20129;-70
2022/03/06 12:23:23;;;;;;;4.30;1.80;;;13.20;60.80;;;;;;4975629;28;20114;-76
2022/03/06 12:25:55;;;;;;;3.20;1.00;;;13.60;59.90;;;;;;4977797;28;20507;-72
2022/03/06 12:28:41;;;;;;;4.45;1.15;;;14.30;59.10;;;;;;4978127;28;20046;-79
2022/03/06 12:31:35;;;;;;;9.23;1.10;;;15.00;57.90;;;;;;4980187;28;20495;-80
2022/03/06 12:34:41;;;;;;;4.57;1.70;;;15.70;55.80;;;;;;4974496;28;20512;-79
2022/03/06 12:37:10;;;;;;;6.90;1.58;;;15.80;54.70;;;;;;4973454;28;20114;-80
2022/03/06 12:39:38;;;;;;;2.13;1.10;;;15.30;55.70;;;;;;4955673;28;20150;-79
2022/03/06 12:42:07;;;;;;;2.70;1.25;;;14.90;55.60;;;;;;4974290;28;20050;-79
2022/03/06 12:44:39;;;;;;;9.82;1.73;;;14.10;56.70;;;;;;4985343;28;20061;-79
2022/03/06 12:47:07;;;;;;;1.77;1.33;;;13.50;58.70;;;;;;4978665;28;20522;-82
2022/03/06 12:49:34;;;;;;;5.45;1.10;;;13.10;59.40;;;;;;4975632;28;20150;-79
2022/03/06 12:52:02;;;;;;;4.53;1.13;;;12.30;60.60;;;;;;4957666;28;20051;-78
2022/03/06 12:54:33;;;;;;;7.13;1.05;;;11.60;62.30;;;;;;4958080;28;20043;-80
2022/03/06 12:57:01;;;;;;;3.38;1.20;;;10.70;65.70;;;;;;4976275;28;20047;-79
2022/03/06 12:59:28;;;;;;;6.53;1.50;;;10.80;68.30;;;;;;4975557;28;20074;-78
2022/03/06 13:01:56;;;;;;;4.78;1.70;;;10.60;68.40;;;;;;4939440;28;20043;-80
2022/03/06 13:04:23;;;;;;;3.13;1.35;;;10.50;68.50;;;;;;4957986;28;20055;-73